createdAt,value
2022-12-01T00:00:01.177Z,1013.65
2022-12-01T00:01:01.204Z,1013.62
2022-12-01T00:02:01.273Z,1013.61
2022-12-01T00:03:01.296Z,1013.60
2022-12-01T00:04:01.167Z,1013.59
2022-12-01T00:05:01.132Z,1013.60
2022-12-01T00:06:01.149Z,1013.59
2022-12-01T00:07:01.110Z,1013.61
2022-12-01T00:08:01.201Z,1013.63
2022-12-01T00:09:01.087Z,1013.62
2022-12-01T00:10:01.092Z,1013.63
2022-12-01T00:11:01.087Z,1013.63
2022-12-01T00:12:01.061Z,1013.63
2022-12-01T00:13:01.058Z,1013.63
2022-12-01T00:14:01.047Z,1013.63
2022-12-01T00:15:01.125Z,1013.60
2022-12-01T00:16:01.104Z,1013.60
2022-12-01T00:17:01.011Z,1013.60
2022-12-01T00:18:01.002Z,1013.60
2022-12-01T00:19:01.020Z,1013.59
2022-12-01T00:20:00.996Z,1013.59
2022-12-01T00:21:01.098Z,1013.58
2022-12-01T00:22:01.014Z,1013.58
2022-12-01T00:23:00.969Z,1013.57
2022-12-01T00:24:00.961Z,1013.56
2022-12-01T00:25:00.942Z,1013.56
2022-12-01T00:26:00.965Z,1013.56
2022-12-01T00:27:00.904Z,1013.56
2022-12-01T00:28:00.899Z,1013.55
2022-12-01T00:29:00.896Z,1013.54
2022-12-01T00:30:00.879Z,1013.54
2022-12-01T00:31:00.888Z,1013.55
2022-12-01T00:32:00.935Z,1013.54
2022-12-01T00:33:00.845Z,1013.54
2022-12-01T00:34:00.835Z,1013.54
2022-12-01T00:35:00.822Z,1013.54
2022-12-01T00:36:00.844Z,1013.54
2022-12-01T00:37:00.798Z,1013.54
2022-12-01T00:38:00.799Z,1013.51
2022-12-01T00:39:00.784Z,1013.53
2022-12-01T00:40:00.784Z,1013.53
2022-12-01T00:41:00.780Z,1013.52
2022-12-01T00:42:00.751Z,1013.53
2022-12-01T00:43:00.735Z,1013.53
2022-12-01T00:44:00.731Z,1013.54
2022-12-01T00:45:00.718Z,1013.55
2022-12-01T00:46:00.773Z,1013.52
2022-12-01T00:47:00.727Z,1013.54
2022-12-01T00:48:00.689Z,1013.53
2022-12-01T00:49:00.680Z,1013.51
2022-12-01T00:50:00.668Z,1013.53
2022-12-01T00:51:00.702Z,1013.53
2022-12-01T00:52:00.655Z,1013.52
2022-12-01T00:53:00.648Z,1013.53
2022-12-01T00:54:00.640Z,1013.53
2022-12-01T00:55:00.650Z,1013.53
2022-12-01T00:56:00.647Z,1013.53
2022-12-01T00:57:00.619Z,1013.56
2022-12-01T00:58:00.607Z,1013.55
2022-12-01T00:59:00.597Z,1013.56
2022-12-01T01:00:00.615Z,1013.56
2022-12-01T01:01:00.681Z,1013.57
2022-12-01T01:02:00.656Z,1013.58
2022-12-01T01:03:00.540Z,1013.60
2022-12-01T01:04:00.528Z,1013.61
2022-12-01T01:05:00.514Z,1013.60
2022-12-01T01:06:00.505Z,1013.61
2022-12-01T01:07:00.512Z,1013.60
2022-12-01T01:08:00.548Z,1013.62
2022-12-01T01:09:00.470Z,1013.62
2022-12-01T01:10:00.473Z,1013.62
2022-12-01T01:11:00.452Z,1013.63
2022-12-01T01:12:00.466Z,1013.63
2022-12-01T01:13:00.425Z,1013.65
2022-12-01T01:14:00.423Z,1013.63
2022-12-01T01:15:00.409Z,1013.67
2022-12-01T01:16:00.404Z,1013.63
2022-12-01T01:17:00.488Z,1013.65
2022-12-01T01:18:00.383Z,1013.65
2022-12-01T01:19:00.371Z,1013.67
2022-12-01T01:20:00.369Z,1013.67
2022-12-01T01:21:00.401Z,1013.67
2022-12-01T01:22:00.362Z,1013.66
2022-12-01T01:23:00.334Z,1013.69
2022-12-01T01:24:00.320Z,1013.70
2022-12-01T01:25:00.318Z,1013.69
2022-12-01T01:26:00.304Z,1013.70
2022-12-01T01:27:00.313Z,1013.71
2022-12-01T01:28:00.330Z,1013.72
2022-12-01T01:29:00.271Z,1013.71
2022-12-01T01:30:00.262Z,1013.72
2022-12-01T01:31:00.283Z,1013.73
2022-12-01T01:32:00.269Z,1013.73
2022-12-01T01:33:00.234Z,1013.72
2022-12-01T01:34:00.218Z,1013.75
2022-12-01T01:35:00.206Z,1013.74
2022-12-01T01:36:00.202Z,1013.75
2022-12-01T01:37:00.203Z,1013.77
2022-12-01T01:38:00.184Z,1013.77
2022-12-01T01:39:00.172Z,1013.78
2022-12-01T01:40:00.168Z,1013.79
2022-12-01T01:41:00.146Z,1013.80
2022-12-01T01:42:00.159Z,1013.81
2022-12-01T01:43:00.126Z,1013.81
2022-12-01T01:44:00.141Z,1013.84
2022-12-01T01:45:00.123Z,1013.83
2022-12-01T01:46:00.173Z,1013.84
2022-12-01T01:47:00.100Z,1013.82
2022-12-01T01:48:00.080Z,1013.81
2022-12-01T01:49:00.092Z,1013.81
2022-12-01T01:50:00.078Z,1013.83
2022-12-01T01:51:00.051Z,1013.83
2022-12-01T01:52:00.082Z,1013.82
2022-12-01T01:53:00.024Z,1013.84
2022-12-01T01:54:00.017Z,1013.83
2022-12-01T01:55:00.007Z,1013.82
2022-12-01T01:55:59.997Z,1013.82
2022-12-01T01:57:00.032Z,1013.79
2022-12-01T01:58:00.028Z,1013.80
2022-12-01T01:58:59.952Z,1013.79
2022-12-01T01:59:59.960Z,1013.80
2022-12-01T02:00:59.978Z,1013.79
2022-12-01T02:01:59.952Z,1013.75
2022-12-01T02:03:00.029Z,1013.76
2022-12-01T02:03:59.909Z,1013.75
2022-12-01T02:04:59.895Z,1013.76
2022-12-01T02:06:04.897Z,1013.75
2022-12-01T02:06:59.913Z,1013.77
2022-12-01T02:07:59.957Z,1013.78
2022-12-01T02:08:59.860Z,1013.74
2022-12-01T02:09:59.844Z,1013.75
2022-12-01T02:10:59.830Z,1013.75
2022-12-01T02:11:59.833Z,1013.75
2022-12-01T02:12:59.829Z,1013.75
2022-12-01T02:13:59.810Z,1013.75
2022-12-01T02:14:59.812Z,1013.75
2022-12-01T02:15:59.802Z,1013.76
2022-12-01T02:16:59.822Z,1013.77
2022-12-01T02:17:59.788Z,1013.77
2022-12-01T02:18:59.753Z,1013.78
2022-12-01T02:19:59.746Z,1013.80
2022-12-01T02:20:59.729Z,1013.79
2022-12-01T02:21:59.725Z,1013.79
2022-12-01T02:22:59.745Z,1013.77
2022-12-01T02:23:59.709Z,1013.77
2022-12-01T02:24:59.684Z,1013.78
2022-12-01T02:25:59.681Z,1013.75
2022-12-01T02:26:59.671Z,1013.76
2022-12-01T02:27:59.682Z,1013.74
2022-12-01T02:28:59.650Z,1013.77
2022-12-01T02:29:59.640Z,1013.74
2022-12-01T02:30:59.720Z,1013.74
2022-12-01T02:31:59.629Z,1013.74
2022-12-01T02:32:59.628Z,1013.76
2022-12-01T02:33:59.599Z,1013.75
2022-12-01T02:34:59.590Z,1013.74
2022-12-01T02:35:59.580Z,1013.74
2022-12-01T02:36:59.563Z,1013.74
2022-12-01T02:37:59.583Z,1013.74
2022-12-01T02:38:59.538Z,1013.73
2022-12-01T02:39:59.543Z,1013.73
2022-12-01T02:40:59.521Z,1013.73
2022-12-01T02:41:59.516Z,1013.75
2022-12-01T02:42:59.563Z,1013.75
2022-12-01T02:43:59.494Z,1013.76
2022-12-01T02:44:59.476Z,1013.76
2022-12-01T02:45:59.528Z,1013.77
2022-12-01T02:46:59.459Z,1013.77
2022-12-01T02:47:59.472Z,1013.77
2022-12-01T02:48:59.435Z,1013.77
2022-12-01T02:49:59.447Z,1013.77
2022-12-01T02:50:59.415Z,1013.77
2022-12-01T02:51:59.431Z,1013.77
2022-12-01T02:52:59.416Z,1013.76
2022-12-01T02:53:59.401Z,1013.77
2022-12-01T02:54:59.375Z,1013.76
2022-12-01T02:55:59.368Z,1013.76
2022-12-01T02:56:59.353Z,1013.75
2022-12-01T02:57:59.372Z,1013.75
2022-12-01T02:58:59.332Z,1013.76
2022-12-01T02:59:59.330Z,1013.75
2022-12-01T03:00:59.373Z,1013.73
2022-12-01T03:02:05.830Z,1013.72
2022-12-01T03:03:05.368Z,1013.72
2022-12-01T03:03:59.293Z,1013.73
2022-12-01T03:04:59.271Z,1013.73
2022-12-01T03:05:59.264Z,1013.76
2022-12-01T03:06:59.256Z,1013.74
2022-12-01T03:07:59.354Z,1013.75
2022-12-01T03:08:59.310Z,1013.74
2022-12-01T03:09:59.249Z,1013.75
2022-12-01T03:10:59.212Z,1013.76
2022-12-01T03:11:59.211Z,1013.75
2022-12-01T03:12:59.193Z,1013.76
2022-12-01T03:13:59.209Z,1013.76
2022-12-01T03:14:59.169Z,1013.76
2022-12-01T03:15:59.208Z,1013.76
2022-12-01T03:16:59.147Z,1013.77
2022-12-01T03:17:59.144Z,1013.76
2022-12-01T03:18:59.162Z,1013.77
2022-12-01T03:19:59.131Z,1013.76
2022-12-01T03:20:59.125Z,1013.75
2022-12-01T03:21:59.103Z,1013.75
2022-12-01T03:22:59.090Z,1013.75
2022-12-01T03:23:59.115Z,1013.74
2022-12-01T03:24:59.081Z,1013.72
2022-12-01T03:25:59.083Z,1013.70
2022-12-01T03:26:59.044Z,1013.70
2022-12-01T03:28:21.280Z,1013.69
2022-12-01T03:28:59.056Z,1013.69
2022-12-01T03:29:59.022Z,1013.68
2022-12-01T03:30:59.097Z,1013.68
2022-12-01T03:31:58.991Z,1013.69
2022-12-01T03:32:58.995Z,1013.70
2022-12-01T03:33:58.996Z,1013.68
2022-12-01T03:34:58.972Z,1013.68
2022-12-01T03:35:58.958Z,1013.70
2022-12-01T03:36:58.951Z,1013.69
2022-12-01T03:37:58.935Z,1013.70
2022-12-01T03:38:58.953Z,1013.72
2022-12-01T03:40:00.768Z,1013.73
2022-12-01T03:40:58.904Z,1013.73
2022-12-01T03:41:58.900Z,1013.72
2022-12-01T03:42:58.886Z,1013.73
2022-12-01T03:43:58.895Z,1013.73
2022-12-01T03:44:58.869Z,1013.73
2022-12-01T03:45:58.922Z,1013.73
2022-12-01T03:46:58.844Z,1013.73
2022-12-01T03:47:58.826Z,1013.72
2022-12-01T03:48:58.852Z,1013.73
2022-12-01T03:49:58.813Z,1013.75
2022-12-01T03:50:58.814Z,1013.74
2022-12-01T03:51:58.805Z,1013.74
2022-12-01T03:52:58.797Z,1013.75
2022-12-01T03:53:58.789Z,1013.79
2022-12-01T03:54:58.761Z,1013.79
2022-12-01T03:55:58.743Z,1013.81
2022-12-01T03:56:58.740Z,1013.82
2022-12-01T03:57:58.722Z,1013.83
2022-12-01T03:58:58.759Z,1013.83
2022-12-01T03:59:58.708Z,1013.84
2022-12-01T04:00:58.710Z,1013.85
2022-12-01T04:01:58.747Z,1013.83
2022-12-01T04:02:58.790Z,1013.84
2022-12-01T04:03:58.664Z,1013.84
2022-12-01T04:04:58.687Z,1013.85
2022-12-01T04:05:58.640Z,1013.84
2022-12-01T04:06:58.641Z,1013.85
2022-12-01T04:07:58.730Z,1013.85
2022-12-01T04:08:58.643Z,1013.87
2022-12-01T04:09:58.624Z,1013.86
2022-12-01T04:10:58.602Z,1013.87
2022-12-01T04:11:58.580Z,1013.88
2022-12-01T04:12:58.581Z,1013.87
2022-12-01T04:13:58.564Z,1013.88
2022-12-01T04:14:58.575Z,1013.89
2022-12-01T04:15:58.607Z,1013.88
2022-12-01T04:16:58.533Z,1013.91
2022-12-01T04:17:58.522Z,1013.90
2022-12-01T04:18:58.509Z,1013.93
2022-12-01T04:19:58.529Z,1013.93
2022-12-01T04:20:58.488Z,1013.94
2022-12-01T04:21:58.491Z,1013.93
2022-12-01T04:22:58.472Z,1013.94
2022-12-01T04:23:58.461Z,1013.94
2022-12-01T04:24:58.467Z,1013.94
2022-12-01T04:25:58.445Z,1013.94
2022-12-01T04:26:58.427Z,1013.94
2022-12-01T04:27:58.425Z,1013.95
2022-12-01T04:28:58.415Z,1013.96
2022-12-01T04:29:58.372Z,1013.97
2022-12-01T04:30:58.457Z,1013.98
2022-12-01T04:31:58.394Z,1013.97
2022-12-01T04:32:58.368Z,1013.96
2022-12-01T04:33:58.362Z,1013.96
2022-12-01T04:34:58.417Z,1013.95
2022-12-01T04:35:58.345Z,1013.95
2022-12-01T04:36:58.332Z,1013.96
2022-12-01T04:37:58.329Z,1013.93
2022-12-01T04:38:58.308Z,1013.94
2022-12-01T04:39:58.326Z,1013.93
2022-12-01T04:40:58.304Z,1013.92
2022-12-01T04:41:58.278Z,1013.91
2022-12-01T04:42:58.264Z,1013.91
2022-12-01T04:43:58.257Z,1013.89
2022-12-01T04:44:58.275Z,1013.89
2022-12-01T04:45:58.245Z,1013.88
2022-12-01T04:46:58.246Z,1013.87
2022-12-01T04:47:58.249Z,1013.87
2022-12-01T04:48:58.205Z,1013.87
2022-12-01T04:49:58.219Z,1013.87
2022-12-01T04:50:58.193Z,1013.85
2022-12-01T04:51:58.203Z,1013.84
2022-12-01T04:52:58.163Z,1013.82
2022-12-01T04:53:58.165Z,1013.81
2022-12-01T04:54:58.166Z,1013.80
2022-12-01T04:55:58.148Z,1013.79
2022-12-01T04:56:58.131Z,1013.79
2022-12-01T04:57:58.117Z,1013.78
2022-12-01T04:58:58.102Z,1013.79
2022-12-01T04:59:58.119Z,1013.80
2022-12-01T05:00:58.104Z,1013.79
2022-12-01T05:01:58.128Z,1013.81
2022-12-01T05:02:58.097Z,1013.82
2022-12-01T05:03:58.067Z,1013.83
2022-12-01T05:05:04.063Z,1013.82
2022-12-01T05:05:58.040Z,1013.83
2022-12-01T05:06:58.020Z,1013.83
2022-12-01T05:07:58.084Z,1013.83
2022-12-01T05:08:58.010Z,1013.83
2022-12-01T05:09:58.029Z,1013.83
2022-12-01T05:10:57.985Z,1013.83
2022-12-01T05:11:57.992Z,1013.84
2022-12-01T05:12:57.958Z,1013.83
2022-12-01T05:13:57.955Z,1013.83
2022-12-01T05:14:58.001Z,1013.83
2022-12-01T05:15:57.983Z,1013.83
2022-12-01T05:16:57.915Z,1013.82
2022-12-01T05:17:57.922Z,1013.82
2022-12-01T05:18:57.943Z,1013.82
2022-12-01T05:19:57.926Z,1013.82
2022-12-01T05:20:57.878Z,1013.81
2022-12-01T05:21:57.873Z,1013.82
2022-12-01T05:23:05.288Z,1013.82
2022-12-01T05:23:57.859Z,1013.80
2022-12-01T05:24:57.852Z,1013.83
2022-12-01T05:25:57.872Z,1013.82
2022-12-01T05:26:57.819Z,1013.85
2022-12-01T05:27:57.812Z,1013.85
2022-12-01T05:28:57.796Z,1013.86
2022-12-01T05:29:57.790Z,1013.86
2022-12-01T05:30:57.798Z,1013.88
2022-12-01T05:31:57.787Z,1013.84
2022-12-01T05:32:57.752Z,1013.85
2022-12-01T05:33:57.750Z,1013.85
2022-12-01T05:34:57.735Z,1013.85
2022-12-01T05:35:57.754Z,1013.84
2022-12-01T05:36:57.713Z,1013.87
2022-12-01T05:37:57.704Z,1013.87
2022-12-01T05:38:57.691Z,1013.89
2022-12-01T05:39:57.691Z,1013.90
2022-12-01T05:40:57.693Z,1013.92
2022-12-01T05:41:57.665Z,1013.93
2022-12-01T05:42:57.650Z,1013.92
2022-12-01T05:43:57.643Z,1013.93
2022-12-01T05:44:57.633Z,1013.92
2022-12-01T05:45:57.784Z,1013.89
2022-12-01T05:46:57.611Z,1013.89
2022-12-01T05:47:57.606Z,1013.89
2022-12-01T05:48:57.595Z,1013.88
2022-12-01T05:50:02.111Z,1013.86
2022-12-01T05:50:57.598Z,1013.90
2022-12-01T05:51:57.563Z,1013.86
2022-12-01T05:52:57.549Z,1013.88
2022-12-01T05:53:57.545Z,1013.86
2022-12-01T05:54:57.531Z,1013.90
2022-12-01T05:55:57.547Z,1013.89
2022-12-01T05:56:57.507Z,1013.91
2022-12-01T05:57:57.500Z,1013.92
2022-12-01T05:58:57.492Z,1013.91
2022-12-01T05:59:57.482Z,1013.93
2022-12-01T06:00:57.489Z,1013.93
2022-12-01T06:01:57.503Z,1013.93
2022-12-01T06:02:57.452Z,1013.91
2022-12-01T06:03:57.530Z,1013.90
2022-12-01T06:04:57.427Z,1013.88
2022-12-01T06:05:57.446Z,1013.89
2022-12-01T06:06:57.404Z,1013.89
2022-12-01T06:07:57.446Z,1013.88
2022-12-01T06:08:57.388Z,1013.90
2022-12-01T06:09:57.379Z,1013.88
2022-12-01T06:10:57.385Z,1013.91
2022-12-01T06:11:57.361Z,1013.91
2022-12-01T06:12:57.342Z,1013.93
2022-12-01T06:13:57.344Z,1013.93
2022-12-01T06:14:57.324Z,1013.93
2022-12-01T06:15:57.354Z,1013.94
2022-12-01T06:16:57.353Z,1013.94
2022-12-01T06:17:57.304Z,1013.94
2022-12-01T06:18:57.283Z,1013.94
2022-12-01T06:19:57.273Z,1013.96
2022-12-01T06:20:57.281Z,1013.94
2022-12-01T06:21:57.263Z,1013.96
2022-12-01T06:22:57.257Z,1013.98
2022-12-01T06:23:57.242Z,1013.99
2022-12-01T06:24:57.223Z,1013.98
2022-12-01T06:25:57.242Z,1013.97
2022-12-01T06:26:57.208Z,1013.99
2022-12-01T06:27:57.144Z,1014.02
2022-12-01T06:28:57.420Z,1014.02
2022-12-01T06:29:57.177Z,1014.02
2022-12-01T06:31:02.740Z,1014.02
2022-12-01T06:31:57.196Z,1014.03
2022-12-01T06:32:57.145Z,1014.02
2022-12-01T06:33:57.268Z,1014.03
2022-12-01T06:34:57.126Z,1014.04
2022-12-01T06:35:57.118Z,1014.06
2022-12-01T06:36:57.124Z,1014.06
2022-12-01T06:37:57.096Z,1014.07
2022-12-01T06:38:57.132Z,1014.08
2022-12-01T06:39:57.116Z,1014.08
2022-12-01T06:40:57.065Z,1014.08
2022-12-01T06:41:57.024Z,1014.09
2022-12-01T06:42:57.046Z,1014.10
2022-12-01T06:43:57.037Z,1014.12
2022-12-01T06:44:57.018Z,1014.12
2022-12-01T06:46:01.751Z,1014.12
2022-12-01T06:46:57.029Z,1014.13
2022-12-01T06:47:57.009Z,1014.12
2022-12-01T06:48:56.982Z,1014.14
2022-12-01T06:49:56.978Z,1014.12
2022-12-01T06:50:56.903Z,1014.13
2022-12-01T06:51:56.979Z,1014.12
2022-12-01T06:52:59.285Z,1014.12
2022-12-01T06:54:02.120Z,1014.14
2022-12-01T06:54:56.873Z,1014.14
2022-12-01T06:55:56.878Z,1014.14
2022-12-01T06:56:57.288Z,1014.14
2022-12-01T06:57:56.838Z,1014.12
2022-12-01T06:58:56.830Z,1014.12
2022-12-01T06:59:56.818Z,1014.14
2022-12-01T07:00:56.856Z,1014.14
2022-12-01T07:01:56.997Z,1014.15
2022-12-01T07:02:56.866Z,1014.15
2022-12-01T07:03:56.790Z,1014.15
2022-12-01T07:04:56.766Z,1014.15
2022-12-01T07:05:56.762Z,1014.17
2022-12-01T07:06:56.767Z,1014.18
2022-12-01T07:07:59.711Z,1014.19
2022-12-01T07:08:56.729Z,1014.18
2022-12-01T07:09:56.722Z,1014.20
2022-12-01T07:10:56.712Z,1014.19
2022-12-01T07:11:56.726Z,1014.19
2022-12-01T07:12:56.688Z,1014.20
2022-12-01T07:13:56.681Z,1014.20
2022-12-01T07:14:56.672Z,1014.22
2022-12-01T07:15:56.664Z,1014.24
2022-12-01T07:16:56.712Z,1014.24
2022-12-01T07:17:56.640Z,1014.26
2022-12-01T07:18:56.630Z,1014.28
2022-12-01T07:19:56.625Z,1014.28
2022-12-01T07:20:56.606Z,1014.29
2022-12-01T07:21:56.619Z,1014.28
2022-12-01T07:22:56.587Z,1014.30
2022-12-01T07:23:57.126Z,1014.30
2022-12-01T07:24:56.564Z,1014.31
2022-12-01T07:25:56.559Z,1014.31
2022-12-01T07:26:56.572Z,1014.31
2022-12-01T07:27:56.546Z,1014.31
2022-12-01T07:28:56.526Z,1014.30
2022-12-01T07:29:56.526Z,1014.30
2022-12-01T07:30:56.564Z,1014.30
2022-12-01T07:31:56.518Z,1014.30
2022-12-01T07:32:56.487Z,1014.30
2022-12-01T07:33:56.476Z,1014.29
2022-12-01T07:34:56.472Z,1014.27
2022-12-01T07:35:56.462Z,1014.29
2022-12-01T07:36:56.471Z,1014.30
2022-12-01T07:37:56.441Z,1014.31
2022-12-01T07:39:02.917Z,1014.34
2022-12-01T07:39:56.419Z,1014.33
2022-12-01T07:40:56.406Z,1014.33
2022-12-01T07:41:56.432Z,1014.32
2022-12-01T07:42:56.381Z,1014.32
2022-12-01T07:43:56.387Z,1014.31
2022-12-01T07:44:56.369Z,1014.31
2022-12-01T07:45:56.404Z,1014.31
2022-12-01T07:46:56.362Z,1014.32
2022-12-01T07:47:56.340Z,1014.35
2022-12-01T07:48:56.325Z,1014.36
2022-12-01T07:49:56.317Z,1014.39
2022-12-01T07:50:56.317Z,1014.40
2022-12-01T07:51:56.315Z,1014.42
2022-12-01T07:52:56.282Z,1014.43
2022-12-01T07:53:56.281Z,1014.43
2022-12-01T07:54:56.261Z,1014.43
2022-12-01T07:55:56.258Z,1014.45
2022-12-01T07:56:56.278Z,1014.46
2022-12-01T07:57:56.239Z,1014.48
2022-12-01T07:58:56.220Z,1014.48
2022-12-01T07:59:56.218Z,1014.49
2022-12-01T08:00:56.211Z,1014.49
2022-12-01T08:01:56.329Z,1014.48
2022-12-01T08:02:56.249Z,1014.47
2022-12-01T08:03:56.176Z,1014.47
2022-12-01T08:04:56.181Z,1014.47
2022-12-01T08:05:56.175Z,1014.47
2022-12-01T08:06:56.137Z,1014.49
2022-12-01T08:07:56.310Z,1014.51
2022-12-01T08:08:56.133Z,1014.51
2022-12-01T08:09:56.115Z,1014.49
2022-12-01T08:10:56.095Z,1014.50
2022-12-01T08:11:56.091Z,1014.49
2022-12-01T08:12:56.108Z,1014.50
2022-12-01T08:13:56.075Z,1014.51
2022-12-01T08:14:56.056Z,1014.51
2022-12-01T08:15:56.126Z,1014.51
2022-12-01T08:16:56.042Z,1014.53
2022-12-01T08:17:56.048Z,1014.52
2022-12-01T08:18:56.028Z,1014.54
2022-12-01T08:19:56.015Z,1014.55
2022-12-01T08:20:55.996Z,1014.55
2022-12-01T08:21:55.998Z,1014.55
2022-12-01T08:22:56.001Z,1014.57
2022-12-01T08:23:55.998Z,1014.56
2022-12-01T08:24:55.955Z,1014.56
2022-12-01T08:25:55.962Z,1014.56
2022-12-01T08:26:55.937Z,1014.58
2022-12-01T08:27:55.974Z,1014.59
2022-12-01T08:28:55.931Z,1014.61
2022-12-01T08:29:55.942Z,1014.62
2022-12-01T08:30:55.911Z,1014.62
2022-12-01T08:31:55.887Z,1014.62
2022-12-01T08:32:55.902Z,1014.63
2022-12-01T08:33:55.867Z,1014.66
2022-12-01T08:34:55.858Z,1014.67
2022-12-01T08:35:55.845Z,1014.70
2022-12-01T08:36:55.902Z,1014.71
2022-12-01T08:37:55.862Z,1014.71
2022-12-01T08:38:55.830Z,1014.70
2022-12-01T08:39:55.813Z,1014.72
2022-12-01T08:40:55.793Z,1014.73
2022-12-01T08:41:55.781Z,1014.72
2022-12-01T08:42:55.805Z,1014.72
2022-12-01T08:43:58.880Z,1014.73
2022-12-01T08:44:55.799Z,1014.72
2022-12-01T08:45:55.740Z,1014.75
2022-12-01T08:46:55.777Z,1014.75
2022-12-01T08:47:55.743Z,1014.76
2022-12-01T08:48:55.730Z,1014.75
2022-12-01T08:49:55.703Z,1014.76
2022-12-01T08:50:55.697Z,1014.72
2022-12-01T08:51:55.697Z,1014.73
2022-12-01T08:52:55.711Z,1014.71
2022-12-01T08:53:55.714Z,1014.71
2022-12-01T08:54:55.664Z,1014.72
2022-12-01T08:55:55.648Z,1014.75
2022-12-01T08:56:55.639Z,1014.77
2022-12-01T08:57:55.621Z,1014.77
2022-12-01T08:58:55.652Z,1014.76
2022-12-01T08:59:55.615Z,1014.77
2022-12-01T09:00:55.594Z,1014.81
2022-12-01T09:01:55.641Z,1014.79
2022-12-01T09:02:55.650Z,1014.81
2022-12-01T09:03:55.594Z,1014.78
2022-12-01T09:04:55.561Z,1014.78
2022-12-01T09:05:55.542Z,1014.78
2022-12-01T09:07:02.040Z,1014.80
2022-12-01T09:08:02.125Z,1014.80
2022-12-01T09:09:02.307Z,1014.82
2022-12-01T09:09:55.528Z,1014.81
2022-12-01T09:10:55.526Z,1014.81
2022-12-01T09:12:03.971Z,1014.81
2022-12-01T09:12:55.493Z,1014.81
2022-12-01T09:13:55.483Z,1014.82
2022-12-01T09:14:55.454Z,1014.83
2022-12-01T09:15:55.489Z,1014.82
2022-12-01T09:16:55.444Z,1014.82
2022-12-01T09:17:55.428Z,1014.81
2022-12-01T09:18:55.440Z,1014.81
2022-12-01T09:19:55.410Z,1014.83
2022-12-01T09:20:55.395Z,1014.81
2022-12-01T09:21:55.382Z,1014.84
2022-12-01T09:22:55.380Z,1014.84
2022-12-01T09:23:55.388Z,1014.85
2022-12-01T09:24:55.360Z,1014.85
2022-12-01T09:25:55.362Z,1014.87
2022-12-01T09:26:55.365Z,1014.86
2022-12-01T09:27:55.325Z,1014.88
2022-12-01T09:28:55.342Z,1014.86
2022-12-01T09:29:55.306Z,1014.87
2022-12-01T09:30:55.307Z,1014.86
2022-12-01T09:31:55.310Z,1014.86
2022-12-01T09:32:55.284Z,1014.87
2022-12-01T09:33:55.290Z,1014.86
2022-12-01T09:34:55.268Z,1014.86
2022-12-01T09:35:55.247Z,1014.85
2022-12-01T09:36:55.238Z,1014.88
2022-12-01T09:37:55.235Z,1014.87
2022-12-01T09:38:55.250Z,1014.86
2022-12-01T09:39:55.302Z,1014.88
2022-12-01T09:40:55.209Z,1014.87
2022-12-01T09:41:55.183Z,1014.87
2022-12-01T09:43:01.476Z,1014.88
2022-12-01T09:44:01.745Z,1014.88
2022-12-01T09:45:01.180Z,1014.88
2022-12-01T09:46:01.157Z,1014.88
2022-12-01T09:47:02.699Z,1014.89
2022-12-01T09:47:55.129Z,1014.88
2022-12-01T09:48:55.161Z,1014.89
2022-12-01T09:49:55.112Z,1014.89
2022-12-01T09:50:55.099Z,1014.90
2022-12-01T09:51:55.100Z,1014.89
2022-12-01T09:52:55.085Z,1014.91
2022-12-01T09:53:55.098Z,1014.93
2022-12-01T09:54:55.075Z,1014.94
2022-12-01T09:56:00.730Z,1014.93
2022-12-01T09:56:55.049Z,1014.92
2022-12-01T09:57:55.035Z,1014.90
2022-12-01T09:58:55.059Z,1014.91
2022-12-01T09:59:55.017Z,1014.90
2022-12-01T10:00:55.034Z,1014.89
2022-12-01T10:01:55.064Z,1014.90
2022-12-01T10:02:54.980Z,1014.88
2022-12-01T10:03:55.007Z,1014.85
2022-12-01T10:04:55.052Z,1014.86
2022-12-01T10:06:25.860Z,1014.83
2022-12-01T10:06:54.983Z,1014.84
2022-12-01T10:07:55.026Z,1014.82
2022-12-01T10:08:54.950Z,1014.81
2022-12-01T10:09:54.912Z,1014.80
2022-12-01T10:10:54.903Z,1014.80
2022-12-01T10:11:54.900Z,1014.78
2022-12-01T10:12:54.887Z,1014.77
2022-12-01T10:13:54.888Z,1014.78
2022-12-01T10:14:54.864Z,1014.77
2022-12-01T10:15:54.932Z,1014.77
2022-12-01T10:16:54.854Z,1014.78
2022-12-01T10:17:54.836Z,1014.75
2022-12-01T10:18:54.854Z,1014.75
2022-12-01T10:19:54.816Z,1014.72
2022-12-01T10:20:54.807Z,1014.72
2022-12-01T10:21:54.790Z,1014.70
2022-12-01T10:22:54.783Z,1014.69
2022-12-01T10:23:54.989Z,1014.68
2022-12-01T10:24:54.765Z,1014.68
2022-12-01T10:25:54.745Z,1014.66
2022-12-01T10:26:54.751Z,1014.66
2022-12-01T10:27:54.732Z,1014.64
2022-12-01T10:28:54.750Z,1014.67
2022-12-01T10:29:54.822Z,1014.67
2022-12-01T10:30:54.704Z,1014.65
2022-12-01T10:31:54.771Z,1014.65
2022-12-01T10:32:54.716Z,1014.66
2022-12-01T10:33:54.694Z,1014.64
2022-12-01T10:34:54.678Z,1014.64
2022-12-01T10:35:54.680Z,1014.63
2022-12-01T10:36:54.666Z,1014.62
2022-12-01T10:37:54.656Z,1014.63
2022-12-01T10:38:54.680Z,1014.59
2022-12-01T10:39:54.635Z,1014.61
2022-12-01T10:40:54.603Z,1014.60
2022-12-01T10:41:54.595Z,1014.60
2022-12-01T10:42:54.601Z,1014.59
2022-12-01T10:43:54.566Z,1014.59
2022-12-01T10:44:54.602Z,1014.58
2022-12-01T10:45:54.883Z,1014.59
2022-12-01T10:46:54.554Z,1014.60
2022-12-01T10:47:57.629Z,1014.60
2022-12-01T10:48:54.524Z,1014.60
2022-12-01T10:49:54.532Z,1014.62
2022-12-01T10:50:54.504Z,1014.63
2022-12-01T10:51:54.500Z,1014.65
2022-12-01T10:52:54.496Z,1014.66
2022-12-01T10:53:54.469Z,1014.68
2022-12-01T10:54:54.529Z,1014.70
2022-12-01T10:55:54.450Z,1014.69
2022-12-01T10:56:54.461Z,1014.69
2022-12-01T10:57:54.453Z,1014.69
2022-12-01T10:58:54.435Z,1014.68
2022-12-01T10:59:54.438Z,1014.69
2022-12-01T11:01:01.869Z,1014.69
2022-12-01T11:01:54.616Z,1014.68
2022-12-01T11:02:54.584Z,1014.67
2022-12-01T11:03:54.422Z,1014.65
2022-12-01T11:04:54.392Z,1014.65
2022-12-01T11:05:54.366Z,1014.65
2022-12-01T11:06:54.346Z,1014.65
2022-12-01T11:07:54.368Z,1014.64
2022-12-01T11:08:54.331Z,1014.64
2022-12-01T11:09:54.331Z,1014.63
2022-12-01T11:10:54.304Z,1014.61
2022-12-01T11:11:54.292Z,1014.60
2022-12-01T11:12:54.285Z,1014.59
2022-12-01T11:13:54.329Z,1014.60
2022-12-01T11:14:54.286Z,1014.61
2022-12-01T11:15:54.255Z,1014.62
2022-12-01T11:16:54.375Z,1014.61
2022-12-01T11:17:54.244Z,1014.62
2022-12-01T11:18:54.313Z,1014.62
2022-12-01T11:19:54.320Z,1014.60
2022-12-01T11:20:54.206Z,1014.59
2022-12-01T11:21:54.194Z,1014.57
2022-12-01T11:22:54.192Z,1014.55
2022-12-01T11:23:54.186Z,1014.54
2022-12-01T11:24:54.206Z,1014.53
2022-12-01T11:25:54.151Z,1014.54
2022-12-01T11:26:54.155Z,1014.54
2022-12-01T11:27:54.146Z,1014.55
2022-12-01T11:28:54.125Z,1014.55
2022-12-01T11:29:54.132Z,1014.55
2022-12-01T11:30:56.676Z,1014.55
2022-12-01T11:31:54.133Z,1014.55
2022-12-01T11:32:54.097Z,1014.55
2022-12-01T11:33:54.072Z,1014.56
2022-12-01T11:34:54.096Z,1014.57
2022-12-01T11:35:54.100Z,1014.60
2022-12-01T11:36:54.044Z,1014.59
2022-12-01T11:38:27.879Z,1014.59
2022-12-01T11:38:54.031Z,1014.58
2022-12-01T11:39:54.034Z,1014.58
2022-12-01T11:40:54.007Z,1014.57
2022-12-01T11:41:53.990Z,1014.56
2022-12-01T11:42:53.988Z,1014.55
2022-12-01T12:04:55.566Z,1014.48
2022-12-01T12:06:01.451Z,1014.48
2022-12-01T12:06:56.526Z,1014.45
2022-12-01T12:07:56.722Z,1014.45
2022-12-01T12:08:56.556Z,1014.45
2022-12-01T12:09:56.487Z,1014.44
2022-12-01T12:10:56.581Z,1014.43
2022-12-01T12:11:56.466Z,1014.43
2022-12-01T12:12:56.461Z,1014.41
2022-12-01T12:13:56.441Z,1014.42
2022-12-01T12:14:56.434Z,1014.41
2022-12-01T12:15:56.617Z,1014.40
2022-12-01T12:16:56.420Z,1014.39
2022-12-01T12:17:56.574Z,1014.40
2022-12-01T12:18:56.392Z,1014.38
2022-12-01T12:20:08.496Z,1014.38
2022-12-01T12:20:56.406Z,1014.37
2022-12-01T12:21:56.389Z,1014.36
2022-12-01T12:22:56.345Z,1014.33
2022-12-01T12:23:56.333Z,1014.31
2022-12-01T12:24:56.343Z,1014.28
2022-12-01T12:25:56.457Z,1014.26